sensor_id;sensor_type;location;lat;lon;timestamp;temperature;humidity
55488;DHT22;41352;53.158;6.788;2023-09-08T00:01:52;18.70;99.90
55488;DHT22;41352;53.158;6.788;2023-09-08T00:04:18;18.70;99.90
55488;DHT22;41352;53.158;6.788;2023-09-08T00:06:46;18.70;99.90
55488;DHT22;41352;53.158;6.788;2023-09-08T00:09:12;18.60;99.90
55488;DHT22;41352;53.158;6.788;2023-09-08T00:11:38;18.60;99.90
55488;DHT22;41352;53.158;6.788;2023-09-08T00:14:03;18.50;99.90
55488;DHT22;41352;53.158;6.788;2023-09-08T00:16:29;18.40;99.90
55488;DHT22;41352;53.158;6.788;2023-09-08T00:18:56;18.30;99.90
55488;DHT22;41352;53.158;6.788;2023-09-08T00:21:24;18.20;99.90
55488;DHT22;41352;53.158;6.788;2023-09-08T00:23:50;18.20;99.90
55488;DHT22;41352;53.158;6.788;2023-09-08T00:26:20;18.10;99.90
55488;DHT22;41352;53.158;6.788;2023-09-08T00:28:46;18.10;99.90
55488;DHT22;41352;53.158;6.788;2023-09-08T00:31:12;18.10;99.90
55488;DHT22;41352;53.158;6.788;2023-09-08T00:33:38;18.10;99.90
55488;DHT22;41352;53.158;6.788;2023-09-08T00:36:03;18.10;99.90
55488;DHT22;41352;53.158;6.788;2023-09-08T00:38:29;18.00;99.90
55488;DHT22;41352;53.158;6.788;2023-09-08T00:40:55;18.00;99.90
55488;DHT22;41352;53.158;6.788;2023-09-08T00:43:21;17.90;99.90
55488;DHT22;41352;53.158;6.788;2023-09-08T00:45:47;17.90;99.90
55488;DHT22;41352;53.158;6.788;2023-09-08T00:48:13;17.90;99.90
55488;DHT22;41352;53.158;6.788;2023-09-08T00:50:39;17.80;99.90
55488;DHT22;41352;53.158;6.788;2023-09-08T00:53:06;17.80;99.90
55488;DHT22;41352;53.158;6.788;2023-09-08T00:55:32;17.80;99.90
55488;DHT22;41352;53.158;6.788;2023-09-08T00:57:59;17.80;99.90
55488;DHT22;41352;53.158;6.788;2023-09-08T01:00:25;17.80;99.90
55488;DHT22;41352;53.158;6.788;2023-09-08T01:02:51;17.80;99.90
55488;DHT22;41352;53.158;6.788;2023-09-08T01:05:19;17.70;99.90
55488;DHT22;41352;53.158;6.788;2023-09-08T01:07:46;17.70;99.90
55488;DHT22;41352;53.158;6.788;2023-09-08T01:10:13;17.70;99.90
55488;DHT22;41352;53.158;6.788;2023-09-08T01:12:39;17.70;99.90
55488;DHT22;41352;53.158;6.788;2023-09-08T01:15:05;17.70;99.90
55488;DHT22;41352;53.158;6.788;2023-09-08T01:17:32;17.70;99.90
55488;DHT22;41352;53.158;6.788;2023-09-08T01:20:04;17.60;99.90
55488;DHT22;41352;53.158;6.788;2023-09-08T01:27:38;17.50;99.90
55488;DHT22;41352;53.158;6.788;2023-09-08T01:30:06;17.50;99.90
55488;DHT22;41352;53.158;6.788;2023-09-08T01:32:32;17.50;99.90
55488;DHT22;41352;53.158;6.788;2023-09-08T01:34:59;17.50;99.90
55488;DHT22;41352;53.158;6.788;2023-09-08T01:37:26;17.40;99.90
55488;DHT22;41352;53.158;6.788;2023-09-08T01:39:52;17.40;99.90
55488;DHT22;41352;53.158;6.788;2023-09-08T01:42:17;17.30;99.90
55488;DHT22;41352;53.158;6.788;2023-09-08T01:44:43;17.30;99.90
55488;DHT22;41352;53.158;6.788;2023-09-08T01:47:09;17.30;99.90
55488;DHT22;41352;53.158;6.788;2023-09-08T01:49:34;17.20;99.90
55488;DHT22;41352;53.158;6.788;2023-09-08T01:52:00;17.20;99.90
55488;DHT22;41352;53.158;6.788;2023-09-08T01:54:26;17.20;99.90
55488;DHT22;41352;53.158;6.788;2023-09-08T01:56:51;17.20;99.90
55488;DHT22;41352;53.158;6.788;2023-09-08T01:59:18;17.20;99.90
55488;DHT22;41352;53.158;6.788;2023-09-08T02:01:44;17.10;99.90
55488;DHT22;41352;53.158;6.788;2023-09-08T02:04:10;17.10;99.90
55488;DHT22;41352;53.158;6.788;2023-09-08T02:06:35;17.00;99.90
55488;DHT22;41352;53.158;6.788;2023-09-08T02:09:01;16.90;99.90
55488;DHT22;41352;53.158;6.788;2023-09-08T02:11:27;16.90;99.90
55488;DHT22;41352;53.158;6.788;2023-09-08T02:13:52;16.80;99.90
55488;DHT22;41352;53.158;6.788;2023-09-08T02:16:18;16.80;99.90
55488;DHT22;41352;53.158;6.788;2023-09-08T02:18:44;16.80;99.90
55488;DHT22;41352;53.158;6.788;2023-09-08T02:21:10;16.70;99.90
55488;DHT22;41352;53.158;6.788;2023-09-08T02:23:36;16.70;99.90
55488;DHT22;41352;53.158;6.788;2023-09-08T02:26:02;16.70;99.90
55488;DHT22;41352;53.158;6.788;2023-09-08T02:28:28;16.60;99.90
55488;DHT22;41352;53.158;6.788;2023-09-08T02:30:54;16.60;99.90
55488;DHT22;41352;53.158;6.788;2023-09-08T02:33:21;16.60;99.90
55488;DHT22;41352;53.158;6.788;2023-09-08T02:35:47;16.60;99.90
55488;DHT22;41352;53.158;6.788;2023-09-08T02:38:13;16.50;99.90
55488;DHT22;41352;53.158;6.788;2023-09-08T02:40:38;16.50;99.90
55488;DHT22;41352;53.158;6.788;2023-09-08T02:43:04;16.50;99.90
55488;DHT22;41352;53.158;6.788;2023-09-08T02:45:30;16.40;99.90
55488;DHT22;41352;53.158;6.788;2023-09-08T02:47:56;16.40;99.90
55488;DHT22;41352;53.158;6.788;2023-09-08T02:50:22;16.40;99.90
55488;DHT22;41352;53.158;6.788;2023-09-08T02:52:48;16.30;99.90
55488;DHT22;41352;53.158;6.788;2023-09-08T02:55:14;16.30;99.90
55488;DHT22;41352;53.158;6.788;2023-09-08T02:57:39;16.30;99.90
55488;DHT22;41352;53.158;6.788;2023-09-08T03:00:06;16.30;99.90
55488;DHT22;41352;53.158;6.788;2023-09-08T03:02:33;16.30;99.90
55488;DHT22;41352;53.158;6.788;2023-09-08T03:04:59;16.30;99.90
55488;DHT22;41352;53.158;6.788;2023-09-08T03:07:26;16.20;99.90
55488;DHT22;41352;53.158;6.788;2023-09-08T03:09:52;16.20;99.90
55488;DHT22;41352;53.158;6.788;2023-09-08T03:12:18;16.20;99.90
55488;DHT22;41352;53.158;6.788;2023-09-08T03:14:43;16.10;99.90
55488;DHT22;41352;53.158;6.788;2023-09-08T03:17:11;16.10;99.90
55488;DHT22;41352;53.158;6.788;2023-09-08T03:19:36;16.00;99.90
55488;DHT22;41352;53.158;6.788;2023-09-08T03:22:02;15.90;99.90
55488;DHT22;41352;53.158;6.788;2023-09-08T03:24:28;15.90;99.90
55488;DHT22;41352;53.158;6.788;2023-09-08T03:26:53;15.90;99.90
55488;DHT22;41352;53.158;6.788;2023-09-08T03:29:19;15.80;99.90
55488;DHT22;41352;53.158;6.788;2023-09-08T03:31:45;15.70;99.90
55488;DHT22;41352;53.158;6.788;2023-09-08T03:34:11;15.70;99.90
55488;DHT22;41352;53.158;6.788;2023-09-08T03:36:36;15.60;99.90
55488;DHT22;41352;53.158;6.788;2023-09-08T03:39:03;15.60;99.90
55488;DHT22;41352;53.158;6.788;2023-09-08T03:41:29;15.60;99.90
55488;DHT22;41352;53.158;6.788;2023-09-08T03:43:54;15.60;99.90
55488;DHT22;41352;53.158;6.788;2023-09-08T03:46:20;15.60;99.90
55488;DHT22;41352;53.158;6.788;2023-09-08T03:48:46;15.50;99.90
55488;DHT22;41352;53.158;6.788;2023-09-08T03:51:12;15.50;99.90
55488;DHT22;41352;53.158;6.788;2023-09-08T03:53:38;15.50;99.90
55488;DHT22;41352;53.158;6.788;2023-09-08T03:56:03;15.50;99.90
55488;DHT22;41352;53.158;6.788;2023-09-08T03:58:29;15.40;99.90
55488;DHT22;41352;53.158;6.788;2023-09-08T04:00:55;15.40;99.90
55488;DHT22;41352;53.158;6.788;2023-09-08T04:03:20;15.40;99.90
55488;DHT22;41352;53.158;6.788;2023-09-08T04:05:46;15.40;99.90
55488;DHT22;41352;53.158;6.788;2023-09-08T04:08:12;15.30;99.90
55488;DHT22;41352;53.158;6.788;2023-09-08T04:10:37;15.30;99.90
55488;DHT22;41352;53.158;6.788;2023-09-08T04:13:04;15.30;99.90
55488;DHT22;41352;53.158;6.788;2023-09-08T04:15:29;15.30;99.90
55488;DHT22;41352;53.158;6.788;2023-09-08T04:17:55;15.20;99.90
55488;DHT22;41352;53.158;6.788;2023-09-08T04:20:22;15.20;99.90
55488;DHT22;41352;53.158;6.788;2023-09-08T04:22:48;15.20;99.90
55488;DHT22;41352;53.158;6.788;2023-09-08T04:25:14;15.20;99.90
55488;DHT22;41352;53.158;6.788;2023-09-08T04:27:44;15.10;99.90
55488;DHT22;41352;53.158;6.788;2023-09-08T04:30:10;15.10;99.90
55488;DHT22;41352;53.158;6.788;2023-09-08T04:32:36;15.10;99.90
55488;DHT22;41352;53.158;6.788;2023-09-08T04:35:03;15.10;99.90
55488;DHT22;41352;53.158;6.788;2023-09-08T04:37:29;15.00;99.90
55488;DHT22;41352;53.158;6.788;2023-09-08T04:39:56;15.00;99.90
55488;DHT22;41352;53.158;6.788;2023-09-08T04:42:22;15.00;99.90
55488;DHT22;41352;53.158;6.788;2023-09-08T04:44:48;15.00;99.90
55488;DHT22;41352;53.158;6.788;2023-09-08T04:49:44;15.00;99.90
55488;DHT22;41352;53.158;6.788;2023-09-08T04:52:10;15.00;99.90
55488;DHT22;41352;53.158;6.788;2023-09-08T04:54:37;15.00;99.90
55488;DHT22;41352;53.158;6.788;2023-09-08T04:57:02;14.90;99.90
55488;DHT22;41352;53.158;6.788;2023-09-08T04:59:28;14.90;99.90
55488;DHT22;41352;53.158;6.788;2023-09-08T05:01:54;14.90;99.90
55488;DHT22;41352;53.158;6.788;2023-09-08T05:04:21;14.90;99.90
55488;DHT22;41352;53.158;6.788;2023-09-08T05:06:47;15.00;99.90
55488;DHT22;41352;53.158;6.788;2023-09-08T05:09:13;14.90;99.90
55488;DHT22;41352;53.158;6.788;2023-09-08T05:11:39;14.90;99.90
55488;DHT22;41352;53.158;6.788;2023-09-08T05:14:04;14.90;99.90
55488;DHT22;41352;53.158;6.788;2023-09-08T05:16:30;14.90;99.90
55488;DHT22;41352;53.158;6.788;2023-09-08T05:19:11;14.90;99.90
55488;DHT22;41352;53.158;6.788;2023-09-08T05:21:38;14.90;99.90
55488;DHT22;41352;53.158;6.788;2023-09-08T05:24:04;14.90;99.90
55488;DHT22;41352;53.158;6.788;2023-09-08T05:26:30;14.90;99.90
55488;DHT22;41352;53.158;6.788;2023-09-08T05:28:55;15.00;99.90
55488;DHT22;41352;53.158;6.788;2023-09-08T05:31:21;15.00;99.90
55488;DHT22;41352;53.158;6.788;2023-09-08T05:33:47;15.00;99.90
55488;DHT22;41352;53.158;6.788;2023-09-08T05:36:13;15.10;99.90
55488;DHT22;41352;53.158;6.788;2023-09-08T05:38:39;15.10;99.90
55488;DHT22;41352;53.158;6.788;2023-09-08T05:41:04;15.20;99.90
55488;DHT22;41352;53.158;6.788;2023-09-08T05:43:30;15.20;99.90
55488;DHT22;41352;53.158;6.788;2023-09-08T05:45:56;15.30;99.90
55488;DHT22;41352;53.158;6.788;2023-09-08T05:48:21;15.40;99.90
55488;DHT22;41352;53.158;6.788;2023-09-08T05:50:47;15.40;99.90
55488;DHT22;41352;53.158;6.788;2023-09-08T05:53:13;15.60;99.90
55488;DHT22;41352;53.158;6.788;2023-09-08T05:55:39;15.60;99.90
55488;DHT22;41352;53.158;6.788;2023-09-08T05:58:04;15.70;99.90
55488;DHT22;41352;53.158;6.788;2023-09-08T06:00:33;15.80;99.90
55488;DHT22;41352;53.158;6.788;2023-09-08T06:02:58;16.00;99.90
55488;DHT22;41352;53.158;6.788;2023-09-08T06:05:24;16.10;99.90
55488;DHT22;41352;53.158;6.788;2023-09-08T06:07:50;16.20;99.90
55488;DHT22;41352;53.158;6.788;2023-09-08T06:10:18;16.40;99.90
55488;DHT22;41352;53.158;6.788;2023-09-08T06:12:44;16.60;99.90
55488;DHT22;41352;53.158;6.788;2023-09-08T06:15:10;16.70;99.90
55488;DHT22;41352;53.158;6.788;2023-09-08T06:17:36;16.90;99.90
55488;DHT22;41352;53.158;6.788;2023-09-08T06:20:02;17.00;99.90
55488;DHT22;41352;53.158;6.788;2023-09-08T06:22:27;17.20;99.90
55488;DHT22;41352;53.158;6.788;2023-09-08T06:24:53;17.30;99.90
55488;DHT22;41352;53.158;6.788;2023-09-08T06:27:19;17.50;99.90
55488;DHT22;41352;53.158;6.788;2023-09-08T06:29:44;17.70;99.90
55488;DHT22;41352;53.158;6.788;2023-09-08T06:32:10;17.80;99.90
55488;DHT22;41352;53.158;6.788;2023-09-08T06:34:36;18.00;99.90
55488;DHT22;41352;53.158;6.788;2023-09-08T06:37:02;18.20;99.90
55488;DHT22;41352;53.158;6.788;2023-09-08T06:39:28;18.40;99.90
55488;DHT22;41352;53.158;6.788;2023-09-08T06:41:54;18.60;99.90
55488;DHT22;41352;53.158;6.788;2023-09-08T06:44:20;18.80;99.90
55488;DHT22;41352;53.158;6.788;2023-09-08T06:46:46;19.10;99.90
55488;DHT22;41352;53.158;6.788;2023-09-08T06:49:12;19.30;99.90
55488;DHT22;41352;53.158;6.788;2023-09-08T06:51:38;19.70;99.90
55488;DHT22;41352;53.158;6.788;2023-09-08T06:54:04;19.80;99.90
55488;DHT22;41352;53.158;6.788;2023-09-08T06:56:30;20.00;99.90
55488;DHT22;41352;53.158;6.788;2023-09-08T06:58:56;20.30;99.90
55488;DHT22;41352;53.158;6.788;2023-09-08T07:01:25;20.40;99.90
55488;DHT22;41352;53.158;6.788;2023-09-08T07:03:51;20.70;99.90
55488;DHT22;41352;53.158;6.788;2023-09-08T07:06:18;20.90;99.90
55488;DHT22;41352;53.158;6.788;2023-09-08T07:08:48;21.20;99.90
55488;DHT22;41352;53.158;6.788;2023-09-08T07:11:18;21.30;99.90
55488;DHT22;41352;53.158;6.788;2023-09-08T07:13:44;21.50;99.90
55488;DHT22;41352;53.158;6.788;2023-09-08T07:16:10;21.70;99.90
55488;DHT22;41352;53.158;6.788;2023-09-08T07:18:36;22.00;99.90
55488;DHT22;41352;53.158;6.788;2023-09-08T07:21:03;22.20;99.90
55488;DHT22;41352;53.158;6.788;2023-09-08T07:23:31;22.50;99.90
55488;DHT22;41352;53.158;6.788;2023-09-08T07:25:57;22.70;99.90
55488;DHT22;41352;53.158;6.788;2023-09-08T07:28:23;22.80;99.90
55488;DHT22;41352;53.158;6.788;2023-09-08T07:30:49;22.90;99.90
55488;DHT22;41352;53.158;6.788;2023-09-08T07:35:44;23.20;99.90
55488;DHT22;41352;53.158;6.788;2023-09-08T07:38:09;23.20;99.90
55488;DHT22;41352;53.158;6.788;2023-09-08T07:40:35;23.40;99.90
55488;DHT22;41352;53.158;6.788;2023-09-08T07:43:01;23.50;99.90
55488;DHT22;41352;53.158;6.788;2023-09-08T07:45:28;23.50;99.90
55488;DHT22;41352;53.158;6.788;2023-09-08T07:47:53;23.50;99.90
55488;DHT22;41352;53.158;6.788;2023-09-08T07:50:27;23.80;99.90
55488;DHT22;41352;53.158;6.788;2023-09-08T07:52:55;23.50;99.90
55488;DHT22;41352;53.158;6.788;2023-09-08T07:55:22;23.70;99.90
55488;DHT22;41352;53.158;6.788;2023-09-08T07:57:49;24.00;99.90
55488;DHT22;41352;53.158;6.788;2023-09-08T08:00:19;24.30;99.90
55488;DHT22;41352;53.158;6.788;2023-09-08T08:02:50;24.30;99.90
55488;DHT22;41352;53.158;6.788;2023-09-08T08:05:20;24.50;99.90
55488;DHT22;41352;53.158;6.788;2023-09-08T08:07:45;24.70;99.90
55488;DHT22;41352;53.158;6.788;2023-09-08T08:10:12;24.70;99.90
55488;DHT22;41352;53.158;6.788;2023-09-08T08:12:39;24.80;99.90
55488;DHT22;41352;53.158;6.788;2023-09-08T08:15:06;24.80;99.90
55488;DHT22;41352;53.158;6.788;2023-09-08T08:17:32;25.20;99.90
55488;DHT22;41352;53.158;6.788;2023-09-08T08:19:58;25.40;99.90
55488;DHT22;41352;53.158;6.788;2023-09-08T08:22:27;25.90;99.90
55488;DHT22;41352;53.158;6.788;2023-09-08T08:24:52;26.20;99.90
55488;DHT22;41352;53.158;6.788;2023-09-08T08:27:18;26.40;99.90
55488;DHT22;41352;53.158;6.788;2023-09-08T08:29:44;26.70;99.90
55488;DHT22;41352;53.158;6.788;2023-09-08T08:32:09;27.10;99.90
55488;DHT22;41352;53.158;6.788;2023-09-08T08:34:36;27.10;99.90
55488;DHT22;41352;53.158;6.788;2023-09-08T08:37:02;27.50;99.90
55488;DHT22;41352;53.158;6.788;2023-09-08T08:39:28;28.00;99.90
55488;DHT22;41352;53.158;6.788;2023-09-08T08:41:54;28.30;99.90
55488;DHT22;41352;53.158;6.788;2023-09-08T08:44:20;28.50;99.90
55488;DHT22;41352;53.158;6.788;2023-09-08T08:46:46;28.60;99.90
55488;DHT22;41352;53.158;6.788;2023-09-08T08:51:44;29.20;99.90
55488;DHT22;41352;53.158;6.788;2023-09-08T08:56:44;29.50;99.90
55488;DHT22;41352;53.158;6.788;2023-09-08T08:59:10;29.90;99.90
55488;DHT22;41352;53.158;6.788;2023-09-08T09:01:37;29.80;99.90
55488;DHT22;41352;53.158;6.788;2023-09-08T09:04:05;29.70;99.90
55488;DHT22;41352;53.158;6.788;2023-09-08T09:06:31;30.00;99.90
55488;DHT22;41352;53.158;6.788;2023-09-08T09:08:58;30.40;99.90
55488;DHT22;41352;53.158;6.788;2023-09-08T09:11:25;30.50;99.90
55488;DHT22;41352;53.158;6.788;2023-09-08T09:13:51;31.20;99.90
55488;DHT22;41352;53.158;6.788;2023-09-08T09:18:59;31.40;99.90
55488;DHT22;41352;53.158;6.788;2023-09-08T09:21:48;31.30;99.90
55488;DHT22;41352;53.158;6.788;2023-09-08T09:26:44;32.20;99.90
55488;DHT22;41352;53.158;6.788;2023-09-08T09:29:13;32.20;99.90
55488;DHT22;41352;53.158;6.788;2023-09-08T09:32:03;32.30;99.90
55488;DHT22;41352;53.158;6.788;2023-09-08T09:34:29;32.60;99.90
55488;DHT22;41352;53.158;6.788;2023-09-08T09:36:55;32.80;99.90
55488;DHT22;41352;53.158;6.788;2023-09-08T09:39:22;32.80;99.90
55488;DHT22;41352;53.158;6.788;2023-09-08T09:41:56;32.70;99.90
55488;DHT22;41352;53.158;6.788;2023-09-08T09:44:23;32.50;99.90
55488;DHT22;41352;53.158;6.788;2023-09-08T09:46:51;33.00;99.90
55488;DHT22;41352;53.158;6.788;2023-09-08T09:49:20;32.50;99.90
55488;DHT22;41352;53.158;6.788;2023-09-08T09:51:50;32.80;99.90
55488;DHT22;41352;53.158;6.788;2023-09-08T09:54:18;32.90;99.90
55488;DHT22;41352;53.158;6.788;2023-09-08T09:56:45;33.00;99.90
55488;DHT22;41352;53.158;6.788;2023-09-08T09:59:13;32.80;99.90
55488;DHT22;41352;53.158;6.788;2023-09-08T10:01:42;32.80;99.90
55488;DHT22;41352;53.158;6.788;2023-09-08T10:04:09;32.60;99.90
55488;DHT22;41352;53.158;6.788;2023-09-08T10:06:36;32.30;99.90
55488;DHT22;41352;53.158;6.788;2023-09-08T10:09:04;32.60;99.90
55488;DHT22;41352;53.158;6.788;2023-09-08T10:11:38;32.10;99.90
55488;DHT22;41352;53.158;6.788;2023-09-08T10:14:04;32.30;99.90
55488;DHT22;41352;53.158;6.788;2023-09-08T10:16:35;32.40;99.90
55488;DHT22;41352;53.158;6.788;2023-09-08T10:19:09;32.80;99.90
55488;DHT22;41352;53.158;6.788;2023-09-08T10:21:40;33.20;99.90
55488;DHT22;41352;53.158;6.788;2023-09-08T10:26:58;33.00;99.90
55488;DHT22;41352;53.158;6.788;2023-09-08T10:29:27;33.20;99.90
55488;DHT22;41352;53.158;6.788;2023-09-08T10:31:54;33.30;99.90
55488;DHT22;41352;53.158;6.788;2023-09-08T10:34:21;32.90;99.90
55488;DHT22;41352;53.158;6.788;2023-09-08T10:36:47;33.20;99.90
55488;DHT22;41352;53.158;6.788;2023-09-08T10:41:40;33.10;99.90
55488;DHT22;41352;53.158;6.788;2023-09-08T10:44:09;32.80;99.90
55488;DHT22;41352;53.158;6.788;2023-09-08T10:46:39;33.30;99.90
55488;DHT22;41352;53.158;6.788;2023-09-08T10:49:06;33.20;99.90
55488;DHT22;41352;53.158;6.788;2023-09-08T10:51:33;33.20;99.90
55488;DHT22;41352;53.158;6.788;2023-09-08T10:54:00;33.70;99.90
55488;DHT22;41352;53.158;6.788;2023-09-08T10:57:06;33.90;99.90
55488;DHT22;41352;53.158;6.788;2023-09-08T10:59:35;33.70;99.60
55488;DHT22;41352;53.158;6.788;2023-09-08T11:02:03;33.50;99.90
55488;DHT22;41352;53.158;6.788;2023-09-08T11:04:30;33.60;99.90
55488;DHT22;41352;53.158;6.788;2023-09-08T11:07:00;33.50;99.90
55488;DHT22;41352;53.158;6.788;2023-09-08T11:09:26;33.80;99.90
55488;DHT22;41352;53.158;6.788;2023-09-08T11:11:51;33.80;99.60
55488;DHT22;41352;53.158;6.788;2023-09-08T11:14:19;33.80;99.90
55488;DHT22;41352;53.158;6.788;2023-09-08T11:16:44;33.90;99.60
55488;DHT22;41352;53.158;6.788;2023-09-08T11:19:10;33.60;99.40
55488;DHT22;41352;53.158;6.788;2023-09-08T11:21:36;34.10;99.20
55488;DHT22;41352;53.158;6.788;2023-09-08T11:24:02;35.00;99.10
55488;DHT22;41352;53.158;6.788;2023-09-08T11:26:33;37.30;96.60
55488;DHT22;41352;53.158;6.788;2023-09-08T11:28:59;38.70;95.50
55488;DHT22;41352;53.158;6.788;2023-09-08T11:31:25;40.30;94.60
55488;DHT22;41352;53.158;6.788;2023-09-08T11:33:55;39.80;93.10
55488;DHT22;41352;53.158;6.788;2023-09-08T11:36:21;40.60;92.80
55488;DHT22;41352;53.158;6.788;2023-09-08T11:38:46;41.00;92.70
55488;DHT22;41352;53.158;6.788;2023-09-08T11:41:12;42.50;91.70
55488;DHT22;41352;53.158;6.788;2023-09-08T11:43:38;42.70;90.80
55488;DHT22;41352;53.158;6.788;2023-09-08T11:46:06;42.70;90.70
55488;DHT22;41352;53.158;6.788;2023-09-08T11:48:32;43.80;90.20
55488;DHT22;41352;53.158;6.788;2023-09-08T11:50:57;43.10;88.00
55488;DHT22;41352;53.158;6.788;2023-09-08T11:53:24;42.00;89.50
55488;DHT22;41352;53.158;6.788;2023-09-08T11:55:50;41.70;88.80
55488;DHT22;41352;53.158;6.788;2023-09-08T11:58:20;40.70;88.30
55488;DHT22;41352;53.158;6.788;2023-09-08T12:00:46;39.00;88.90
55488;DHT22;41352;53.158;6.788;2023-09-08T12:05:45;37.60;90.70
55488;DHT22;41352;53.158;6.788;2023-09-08T12:08:19;37.40;91.30
55488;DHT22;41352;53.158;6.788;2023-09-08T12:10:45;36.60;91.60
55488;DHT22;41352;53.158;6.788;2023-09-08T12:13:10;36.40;92.10
55488;DHT22;41352;53.158;6.788;2023-09-08T12:15:40;35.80;91.70
55488;DHT22;41352;53.158;6.788;2023-09-08T12:18:08;35.30;91.70
55488;DHT22;41352;53.158;6.788;2023-09-08T12:20:35;35.70;92.30
55488;DHT22;41352;53.158;6.788;2023-09-08T12:23:04;35.70;92.60
55488;DHT22;41352;53.158;6.788;2023-09-08T12:25:30;35.20;91.50
55488;DHT22;41352;53.158;6.788;2023-09-08T12:28:00;35.30;92.30
55488;DHT22;41352;53.158;6.788;2023-09-08T12:30:28;35.30;92.50
55488;DHT22;41352;53.158;6.788;2023-09-08T12:32:59;35.40;92.40
55488;DHT22;41352;53.158;6.788;2023-09-08T12:35:25;35.10;92.30
55488;DHT22;41352;53.158;6.788;2023-09-08T12:37:58;35.10;92.10
55488;DHT22;41352;53.158;6.788;2023-09-08T12:40:28;35.10;92.00
55488;DHT22;41352;53.158;6.788;2023-09-08T12:42:54;35.50;92.20
55488;DHT22;41352;53.158;6.788;2023-09-08T12:45:22;35.50;92.50
55488;DHT22;41352;53.158;6.788;2023-09-08T12:47:51;35.40;92.00
55488;DHT22;41352;53.158;6.788;2023-09-08T12:50:20;35.60;92.20
55488;DHT22;41352;53.158;6.788;2023-09-08T12:52:46;35.70;91.90
55488;DHT22;41352;53.158;6.788;2023-09-08T12:55:12;35.70;92.00
55488;DHT22;41352;53.158;6.788;2023-09-08T12:57:38;35.80;91.50
55488;DHT22;41352;53.158;6.788;2023-09-08T13:00:04;36.10;91.60
55488;DHT22;41352;53.158;6.788;2023-09-08T13:02:31;37.00;91.50
55488;DHT22;41352;53.158;6.788;2023-09-08T13:04:57;38.80;91.00
55488;DHT22;41352;53.158;6.788;2023-09-08T13:07:24;40.60;90.20
55488;DHT22;41352;53.158;6.788;2023-09-08T13:09:50;41.30;88.30
55488;DHT22;41352;53.158;6.788;2023-09-08T13:12:19;41.50;88.50
55488;DHT22;41352;53.158;6.788;2023-09-08T13:14:45;42.50;86.40
55488;DHT22;41352;53.158;6.788;2023-09-08T13:17:11;43.40;85.90
55488;DHT22;41352;53.158;6.788;2023-09-08T13:19:37;43.50;84.50
55488;DHT22;41352;53.158;6.788;2023-09-08T13:22:06;43.30;85.30
55488;DHT22;41352;53.158;6.788;2023-09-08T13:24:32;42.40;86.20
55488;DHT22;41352;53.158;6.788;2023-09-08T13:27:00;42.70;85.00
55488;DHT22;41352;53.158;6.788;2023-09-08T13:29:26;42.70;84.00
55488;DHT22;41352;53.158;6.788;2023-09-08T13:31:55;43.50;83.00
55488;DHT22;41352;53.158;6.788;2023-09-08T13:34:21;43.90;82.20
55488;DHT22;41352;53.158;6.788;2023-09-08T13:36:47;43.70;82.00
55488;DHT22;41352;53.158;6.788;2023-09-08T13:39:13;42.50;82.00
55488;DHT22;41352;53.158;6.788;2023-09-08T13:41:46;41.10;82.30
55488;DHT22;41352;53.158;6.788;2023-09-08T13:44:12;38.40;84.10
55488;DHT22;41352;53.158;6.788;2023-09-08T13:46:38;38.40;86.50
55488;DHT22;41352;53.158;6.788;2023-09-08T13:49:03;37.30;87.70
55488;DHT22;41352;53.158;6.788;2023-09-08T13:51:29;37.20;88.90
55488;DHT22;41352;53.158;6.788;2023-09-08T13:53:55;36.00;90.00
55488;DHT22;41352;53.158;6.788;2023-09-08T13:56:21;35.70;90.20
55488;DHT22;41352;53.158;6.788;2023-09-08T13:58:46;35.50;90.30
55488;DHT22;41352;53.158;6.788;2023-09-08T14:01:12;34.50;90.80
55488;DHT22;41352;53.158;6.788;2023-09-08T14:03:38;34.90;91.00
55488;DHT22;41352;53.158;6.788;2023-09-08T14:06:03;34.80;91.70
55488;DHT22;41352;53.158;6.788;2023-09-08T14:08:29;34.90;90.80
55488;DHT22;41352;53.158;6.788;2023-09-08T14:10:55;34.50;91.40
55488;DHT22;41352;53.158;6.788;2023-09-08T14:13:20;34.50;91.60
55488;DHT22;41352;53.158;6.788;2023-09-08T14:15:46;35.30;91.70
55488;DHT22;41352;53.158;6.788;2023-09-08T14:18:12;35.10;91.10
55488;DHT22;41352;53.158;6.788;2023-09-08T14:20:40;34.90;90.90
55488;DHT22;41352;53.158;6.788;2023-09-08T14:23:06;34.70;91.10
55488;DHT22;41352;53.158;6.788;2023-09-08T14:25:34;34.60;91.30
55488;DHT22;41352;53.158;6.788;2023-09-08T14:28:00;34.70;91.40
55488;DHT22;41352;53.158;6.788;2023-09-08T14:30:29;34.60;91.90
55488;DHT22;41352;53.158;6.788;2023-09-08T14:32:55;34.40;91.50
55488;DHT22;41352;53.158;6.788;2023-09-08T14:35:21;34.60;91.50
55488;DHT22;41352;53.158;6.788;2023-09-08T14:37:50;34.80;91.30
55488;DHT22;41352;53.158;6.788;2023-09-08T14:40:21;34.90;91.10
55488;DHT22;41352;53.158;6.788;2023-09-08T14:42:47;34.40;91.10
55488;DHT22;41352;53.158;6.788;2023-09-08T14:45:13;34.20;91.70
55488;DHT22;41352;53.158;6.788;2023-09-08T14:47:38;33.80;91.50
55488;DHT22;41352;53.158;6.788;2023-09-08T14:50:04;34.30;91.60
55488;DHT22;41352;53.158;6.788;2023-09-08T14:52:30;34.10;91.40
55488;DHT22;41352;53.158;6.788;2023-09-08T14:54:56;34.10;91.20
55488;DHT22;41352;53.158;6.788;2023-09-08T14:57:22;34.20;91.20
55488;DHT22;41352;53.158;6.788;2023-09-08T14:59:47;34.30;91.20
55488;DHT22;41352;53.158;6.788;2023-09-08T15:02:13;34.20;92.10
55488;DHT22;41352;53.158;6.788;2023-09-08T15:04:39;34.00;91.50
55488;DHT22;41352;53.158;6.788;2023-09-08T15:07:05;34.10;91.30
55488;DHT22;41352;53.158;6.788;2023-09-08T15:09:30;33.90;91.30
55488;DHT22;41352;53.158;6.788;2023-09-08T15:11:56;33.90;91.80
55488;DHT22;41352;53.158;6.788;2023-09-08T15:14:22;33.80;91.80
55488;DHT22;41352;53.158;6.788;2023-09-08T15:16:47;33.70;91.50
55488;DHT22;41352;53.158;6.788;2023-09-08T15:19:13;33.60;91.10
55488;DHT22;41352;53.158;6.788;2023-09-08T15:21:39;33.60;91.10
55488;DHT22;41352;53.158;6.788;2023-09-08T15:24:05;33.80;91.00
55488;DHT22;41352;53.158;6.788;2023-09-08T15:26:31;33.60;91.10
55488;DHT22;41352;53.158;6.788;2023-09-08T15:28:57;33.40;91.60
55488;DHT22;41352;53.158;6.788;2023-09-08T15:31:24;33.40;91.40
55488;DHT22;41352;53.158;6.788;2023-09-08T15:33:50;33.40;92.20
55488;DHT22;41352;53.158;6.788;2023-09-08T15:36:20;33.40;91.90
55488;DHT22;41352;53.158;6.788;2023-09-08T15:38:46;33.20;92.00
55488;DHT22;41352;53.158;6.788;2023-09-08T15:43:40;33.30;93.50
55488;DHT22;41352;53.158;6.788;2023-09-08T15:46:07;33.10;93.30
55488;DHT22;41352;53.158;6.788;2023-09-08T15:48:39;33.00;93.40
55488;DHT22;41352;53.158;6.788;2023-09-08T15:51:08;33.10;93.20
55488;DHT22;41352;53.158;6.788;2023-09-08T15:53:35;32.90;93.80
55488;DHT22;41352;53.158;6.788;2023-09-08T15:56:01;33.00;94.40
55488;DHT22;41352;53.158;6.788;2023-09-08T15:58:27;32.80;95.00